Terminal Aerodrome Forecast
Issued by NWS St Louis, MO

Home | Current Version | Previous Version | Text Only | Print | Product List | Glossary On
Versions: 1 2 3 4 5 6 7 8 9 10 11 12 13 14 15 16 17 18 19 20
000
FTUS43 KLSX 152340
TAFCOU
TAF
KCOU 152340Z 1600/1624 VRB04KT P6SM SCT050
     FM161000 VRB04KT 5SM BR VCTS BKN040CB
     FM161400 15006KT P6SM BKN040
     FM161800 18008KT P6SM SCT050 BKN080=

USA.gov is the U.S. government's official web portal to all federal, state and local government web resources and services.